Etusivu
METAR-TAF:

METAR-TAF

Lentoasemat :

Schenck Field

Clarinda, Iowa, Yhdysvallat

Leveyspiiri: 40-43N, Pituuspiiri: 095-02W, korkeus merenpinnasta: 303 m

Tämänhetkinen sää

Tämä raportti tehtiin 14 minuuttia sitten, kello 18.15 UTC
Tuuli 11 kn etelästä/lounaasta
Lämpötila -7°C
Kosteus 62%
Ilmanpaine 1034 hPa
Näkyvyys: 16.1 km
selkeää

METAR: KICL 121815Z AUTO 20011KT 10SM CLR M07/M13 A3052 RMK AO2

Aika: 12:29 (18:29 UTC)


TAF: puuttuu

Säähavainnot ja -ennusteet yli 4000 lentoasemalta (METAR- ja TAF-raportit).

Käytössä olevat sääasemat on merkitty karttaan keltaisilla ja punaisilla pisteillä.

Aseta hiiri pisteen päälle nähdäksesi sääaseman nimen.

Klikkaa sitten nähdäksesi säähavainnot ja -ennusteet.

Kartan vaihtaminen: klikkaa mustalla rastilla varustettuja vihreitä pisteitä, niin voit zoomata sisään; viivalla varustettua vihreää pistettä, niin voit zoomata ulos tai vihreitä nuolia, niin pääset viereisille kartoille.


METAR-TAF: